Time;durP1;ratioP1;P1;durP2;ratioP2;P2;SDS_P1;SDS_P2;PMS_P1;PMS_P2;Temp;Humidity;BMP_temperature;BMP_pressure;BME280_temperature;BME280_humidity;BME280_pressure;Samples;Min_cycle;Max_cycle;Signal;HPM_P1;HPM_P2
2021/11/01 00:01:32;;;;;;;;;53.25;41.00;;;;;;;;5020555;28;113638;-72
2021/11/01 00:04:02;;;;;;;;;44.75;39.00;;;;;;;;5022602;28;111782;-72
2021/11/01 00:06:28;;;;;;;;;41.75;35.50;;;;;;;;5022787;28;112363;-72
2021/11/01 00:08:54;;;;;;;;;42.00;37.50;;;;;;;;5021659;27;112646;-73
2021/11/01 00:11:19;;;;;;;;;46.25;40.00;;;;;;;;5022053;28;111870;-73
2021/11/01 00:13:44;;;;;;;;;46.00;40.00;;;;;;;;5022556;28;111766;-73
2021/11/01 00:16:10;;;;;;;;;47.75;41.00;;;;;;;;5024871;28;112392;-73
2021/11/01 00:18:36;;;;;;;;;42.75;36.50;;;;;;;;5022136;27;111884;-73
2021/11/01 00:21:01;;;;;;;;;34.50;24.75;;;;;;;;5020745;28;112973;-74
2021/11/01 00:23:27;;;;;;;;;41.50;36.75;;;;;;;;5021068;27;112290;-74
2021/11/01 00:25:52;;;;;;;;;43.75;35.00;;;;;;;;5021718;28;111779;-75
2021/11/01 00:28:17;;;;;;;;;40.75;35.50;;;;;;;;5020876;28;112322;-74
2021/11/01 00:30:43;;;;;;;;;42.75;35.00;;;;;;;;5022647;27;111998;-74
2021/11/01 00:33:08;;;;;;;;;40.00;37.00;;;;;;;;5022368;27;113342;-74
2021/11/01 00:35:33;;;;;;;;;42.75;36.00;;;;;;;;5024986;27;112298;-74
2021/11/01 00:37:59;;;;;;;;;43.25;32.25;;;;;;;;5021925;28;112584;-74
2021/11/01 00:40:24;;;;;;;;;37.50;35.75;;;;;;;;5020971;27;112345;-74
2021/11/01 00:42:49;;;;;;;;;41.25;34.00;;;;;;;;5021981;28;112092;-74
2021/11/01 00:45:15;;;;;;;;;47.75;40.50;;;;;;;;5022125;27;111865;-74
2021/11/01 00:47:40;;;;;;;;;43.25;38.00;;;;;;;;5020925;27;112412;-75
2021/11/01 00:50:05;;;;;;;;;50.25;40.00;;;;;;;;5021575;28;111896;-75
2021/11/01 00:52:31;;;;;;;;;40.00;37.50;;;;;;;;5021894;28;111882;-75
2021/11/01 00:55:09;;;;;;;;;38.00;37.00;;;;;;;;5022078;27;112610;-74
2021/11/01 00:57:35;;;;;;;;;39.75;34.25;;;;;;;;5025282;28;111906;-74
2021/11/01 01:00:00;;;;;;;;;41.25;35.00;;;;;;;;5020723;28;112304;-75
2021/11/01 01:02:29;;;;;;;;;43.75;39.00;;;;;;;;5021314;27;111807;-73
2021/11/01 01:04:54;;;;;;;;;41.50;34.00;;;;;;;;5021592;28;112395;-74
2021/11/01 01:07:19;;;;;;;;;44.25;39.50;;;;;;;;5020765;28;112715;-74
2021/11/01 01:09:45;;;;;;;;;40.75;30.25;;;;;;;;5021011;27;111958;-73
2021/11/01 01:12:11;;;;;;;;;37.50;34.25;;;;;;;;5021062;28;112057;-74
2021/11/01 01:14:44;;;;;;;;;41.00;37.50;;;;;;;;5020420;28;113121;-74
2021/11/01 01:17:10;;;;;;;;;37.50;29.50;;;;;;;;5021307;27;111849;-74
2021/11/01 01:22:30;;;;;;;;;38.25;35.00;;;;;;;;5007075;27;112029;-71
2021/11/01 01:25:03;;;;;;;;;37.50;36.00;;;;;;;;5019509;28;115006;-73
2021/11/01 01:27:29;;;;;;;;;30.25;28.75;;;;;;;;5020409;27;112415;-75
2021/11/01 01:29:55;;;;;;;;;41.25;39.75;;;;;;;;5021346;28;112301;-74
2021/11/01 01:32:20;;;;;;;;;32.25;29.75;;;;;;;;5021054;27;112178;-73
2021/11/01 01:34:45;;;;;;;;;38.75;33.00;;;;;;;;5020089;28;112453;-73
2021/11/01 01:37:11;;;;;;;;;39.00;35.75;;;;;;;;5020842;28;111857;-73
2021/11/01 01:39:36;;;;;;;;;44.50;39.25;;;;;;;;5020900;27;113027;-73
2021/11/01 01:42:02;;;;;;;;;48.75;39.25;;;;;;;;5024170;28;112375;-73
2021/11/01 01:44:27;;;;;;;;;40.75;37.00;;;;;;;;5020965;28;113063;-74
2021/11/01 01:46:53;;;;;;;;;43.00;37.50;;;;;;;;5020206;28;112538;-72
2021/11/01 01:49:18;;;;;;;;;40.50;35.25;;;;;;;;5019328;28;111906;-73
2021/11/01 01:51:44;;;;;;;;;45.25;38.50;;;;;;;;5020922;27;111959;-71
2021/11/01 01:54:10;;;;;;;;;43.25;37.50;;;;;;;;5019137;27;112568;-73
2021/11/01 01:56:35;;;;;;;;;45.75;38.50;;;;;;;;5020745;27;111770;-72
2021/11/01 01:59:05;;;;;;;;;41.75;40.25;;;;;;;;5020405;27;111874;-70
2021/11/01 02:01:48;;;;;;;;;43.25;39.50;;;;;;;;5020022;28;113836;-72
2021/11/01 02:04:15;;;;;;;;;46.25;37.50;;;;;;;;5024497;28;111839;-72
2021/11/01 02:06:41;;;;;;;;;41.00;32.25;;;;;;;;5019267;28;112407;-72
2021/11/01 02:09:09;;;;;;;;;50.50;38.00;;;;;;;;5020579;27;111897;-72
2021/11/01 02:11:40;;;;;;;;;51.75;42.50;;;;;;;;5020596;28;112210;-71
2021/11/01 02:14:10;;;;;;;;;44.00;36.00;;;;;;;;5017552;28;115586;-75
2021/11/01 02:16:36;;;;;;;;;44.50;36.75;;;;;;;;5020594;27;112038;-73
2021/11/01 02:19:05;;;;;;;;;52.75;40.75;;;;;;;;5021034;28;111898;-73
2021/11/01 02:21:37;;;;;;;;;52.00;42.00;;;;;;;;5018700;27;113755;-75
2021/11/01 02:24:05;;;;;;;;;54.75;39.75;;;;;;;;5019129;28;111855;-73
2021/11/01 02:26:32;;;;;;;;;49.75;40.00;;;;;;;;5022941;28;113081;-75
2021/11/01 02:28:58;;;;;;;;;42.00;35.25;;;;;;;;5020618;27;111994;-75
2021/11/01 02:31:23;;;;;;;;;41.00;35.00;;;;;;;;5021534;27;112155;-72
2021/11/01 02:33:49;;;;;;;;;47.00;39.75;;;;;;;;5022768;28;112572;-72
2021/11/01 02:36:15;;;;;;;;;46.25;41.50;;;;;;;;5024026;28;112137;-74
2021/11/01 02:38:41;;;;;;;;;41.00;36.50;;;;;;;;5023755;28;112404;-73
2021/11/01 02:41:36;;;;;;;;;42.00;36.00;;;;;;;;5020923;28;115885;-73
2021/11/01 02:44:05;;;;;;;;;43.75;40.00;;;;;;;;5018613;28;111923;-72
2021/11/01 02:46:31;;;;;;;;;48.00;40.00;;;;;;;;5026570;28;113127;-72
2021/11/01 02:48:57;;;;;;;;;49.75;39.75;;;;;;;;5023270;28;111892;-73
2021/11/01 02:51:23;;;;;;;;;47.00;38.75;;;;;;;;5023477;27;112114;-73
2021/11/01 02:53:50;;;;;;;;;44.50;40.00;;;;;;;;5022693;28;112774;-72
2021/11/01 02:56:15;;;;;;;;;46.75;39.75;;;;;;;;5023786;27;112083;-72
2021/11/01 02:58:42;;;;;;;;;46.25;37.50;;;;;;;;5023274;28;111957;-72
2021/11/01 03:01:08;;;;;;;;;49.75;40.25;;;;;;;;5020608;28;113748;-72
2021/11/01 03:03:35;;;;;;;;;46.50;36.75;;;;;;;;5023833;28;111760;-71
2021/11/01 03:06:01;;;;;;;;;51.25;42.75;;;;;;;;5023351;28;112391;-71
2021/11/01 03:08:28;;;;;;;;;54.00;43.00;;;;;;;;5026112;27;112321;-71
2021/11/01 03:10:54;;;;;;;;;54.75;40.00;;;;;;;;5023199;28;112250;-71
2021/11/01 03:13:20;;;;;;;;;42.00;34.75;;;;;;;;5022448;28;112608;-72
2021/11/01 03:15:45;;;;;;;;;47.50;38.75;;;;;;;;5023277;28;111867;-71
2021/11/01 03:18:11;;;;;;;;;51.75;43.00;;;;;;;;5022906;28;112386;-72
2021/11/01 03:20:42;;;;;;;;;46.75;40.25;;;;;;;;5021411;28;113514;-72
2021/11/01 03:23:10;;;;;;;;;47.25;37.75;;;;;;;;5022661;27;111775;-72
2021/11/01 03:25:41;;;;;;;;;53.25;44.00;;;;;;;;5022963;28;112411;-72
2021/11/01 03:28:08;;;;;;;;;46.75;39.00;;;;;;;;5019621;28;114514;-72
2021/11/01 03:30:34;;;;;;;;;53.75;40.50;;;;;;;;5025502;28;112040;-72
2021/11/01 03:33:00;;;;;;;;;52.00;43.00;;;;;;;;5021970;28;113781;-72
2021/11/01 03:35:26;;;;;;;;;54.00;39.00;;;;;;;;5022876;27;111895;-72
2021/11/01 03:37:53;;;;;;;;;52.00;43.00;;;;;;;;5022700;27;112178;-71
2021/11/01 03:40:20;;;;;;;;;40.75;36.50;;;;;;;;5021758;28;112606;-72
2021/11/01 03:42:51;;;;;;;;;53.75;42.25;;;;;;;;5022174;27;111878;-72
2021/11/01 03:45:17;;;;;;;;;50.00;40.00;;;;;;;;5022690;27;112397;-71
2021/11/01 03:47:44;;;;;;;;;48.25;43.00;;;;;;;;5022106;27;113720;-72
2021/11/01 03:52:44;;;;;;;;;53.00;44.00;;;;;;;;5025231;27;112548;-72
2021/11/01 03:55:10;;;;;;;;;55.75;44.50;;;;;;;;5022266;28;112289;-72
2021/11/01 03:57:35;;;;;;;;;46.75;37.75;;;;;;;;5022376;28;111833;-72
2021/11/01 04:00:01;;;;;;;;;45.25;40.00;;;;;;;;5021363;28;112484;-72
2021/11/01 04:02:26;;;;;;;;;41.00;35.75;;;;;;;;5021592;28;112589;-73
2021/11/01 04:04:52;;;;;;;;;44.25;35.75;;;;;;;;5022248;28;112130;-72
2021/11/01 04:07:18;;;;;;;;;51.75;40.00;;;;;;;;5021818;28;112649;-72
2021/11/01 04:09:44;;;;;;;;;45.50;39.00;;;;;;;;5022140;28;111823;-72
2021/11/01 04:12:10;;;;;;;;;46.25;38.75;;;;;;;;5018879;28;112000;-72
2021/11/01 04:17:19;;;;;;;;;39.75;34.00;;;;;;;;5022051;27;112259;-72
2021/11/01 04:19:54;;;;;;;;;41.00;39.00;;;;;;;;5021360;28;112525;-72
2021/11/01 04:22:20;;;;;;;;;40.25;35.25;;;;;;;;5022493;28;111802;-71
2021/11/01 04:24:45;;;;;;;;;39.25;36.75;;;;;;;;5022350;28;111814;-71
2021/11/01 04:27:10;;;;;;;;;37.75;30.50;;;;;;;;5020851;28;112711;-72
2021/11/01 04:29:36;;;;;;;;;45.75;39.50;;;;;;;;5021646;28;111878;-72
2021/11/01 04:32:44;;;;;;;;;40.50;34.25;;;;;;;;5021609;28;112021;-72
2021/11/01 04:34:59;;;;;;;;;42.25;34.75;;;;;;;;5014881;28;113115;-72
2021/11/01 04:37:25;;;;;;;;;35.50;32.00;;;;;;;;5025455;27;111788;-72
2021/11/01 04:53:25;;;;;;;;;45.00;38.50;;;;;;;;5008457;27;112700;-72
2021/11/01 04:55:50;;;;;;;;;44.00;37.75;;;;;;;;5019692;28;113722;-72
2021/11/01 04:58:16;;;;;;;;;42.75;33.25;;;;;;;;5025350;27;112635;-72
2021/11/01 05:00:43;;;;;;;;;38.25;36.50;;;;;;;;5020824;27;113598;-72
2021/11/01 05:03:23;;;;;;;;;47.75;40.00;;;;;;;;5021361;28;111886;-73
2021/11/01 05:05:50;;;;;;;;;40.50;36.25;;;;;;;;5020987;28;113163;-72
2021/11/01 05:08:17;;;;;;;;;42.75;36.75;;;;;;;;5020255;27;113800;-72
2021/11/01 05:10:46;;;;;;;;;41.25;37.25;;;;;;;;5021105;28;111825;-72
2021/11/01 05:13:19;;;;;;;;;42.25;36.25;;;;;;;;5020854;28;114298;-72
2021/11/01 05:15:51;;;;;;;;;42.25;35.50;;;;;;;;5019715;27;113555;-72
2021/11/01 05:18:37;;;;;;;;;41.00;31.50;;;;;;;;5021960;28;113561;-72
2021/11/01 05:21:21;;;;;;;;;48.67;39.33;;;;;;;;5024137;27;111964;-72
2021/11/01 05:23:58;;;;;;;;;41.25;34.00;;;;;;;;5022036;28;112131;-73
2021/11/01 05:26:34;;;;;;;;;44.75;35.50;;;;;;;;5021314;28;112470;-73
2021/11/01 05:29:03;;;;;;;;;41.50;36.75;;;;;;;;5020029;28;113037;-73
2021/11/01 05:31:29;;;;;;;;;41.25;34.00;;;;;;;;5020912;28;111916;-73
2021/11/01 05:34:08;;;;;;;;;41.00;34.50;;;;;;;;5020487;28;113041;-73
2021/11/01 05:36:34;;;;;;;;;41.00;35.50;;;;;;;;5019848;28;112532;-73
2021/11/01 05:39:00;;;;;;;;;41.75;38.00;;;;;;;;5021082;27;112642;-72
2021/11/01 05:41:25;;;;;;;;;36.00;32.00;;;;;;;;5039800;27;112941;-72
2021/11/01 05:43:50;;;;;;;;;46.67;39.00;;;;;;;;5044121;27;112289;-70
2021/11/01 05:46:16;;;;;;;;;42.25;35.00;;;;;;;;5041144;27;112307;-70
2021/11/01 05:48:49;;;;;;;;;33.50;32.00;;;;;;;;5039863;27;112312;-71
2021/11/01 05:51:16;;;;;;;;;41.50;35.00;;;;;;;;5037284;27;112018;-70
2021/11/01 05:53:43;;;;;;;;;45.50;37.00;;;;;;;;5040939;27;111843;-71
2021/11/01 06:01:31;;;;;;;;;44.00;39.33;;;;;;;;5040917;27;112536;-71
2021/11/01 06:04:06;;;;;;;;;42.00;37.00;;;;;;;;5036650;27;113781;-71
2021/11/01 06:14:28;;;;;;;;;49.67;39.33;;;;;;;;5039442;27;112350;-71
2021/11/01 06:16:53;;;;;;;;;44.50;38.75;;;;;;;;5038667;27;114249;-72
2021/11/01 06:19:18;;;;;;;;;37.00;34.50;;;;;;;;5040291;27;111957;-71
2021/11/01 06:21:47;;;;;;;;;41.75;36.50;;;;;;;;5036761;27;111897;-72
2021/11/01 06:24:36;;;;;;;;;50.50;35.50;;;;;;;;5039228;27;112587;-72
2021/11/01 06:26:57;;;;;;;;;43.00;36.50;;;;;;;;5037645;27;111949;-71
2021/11/01 06:29:29;;;;;;;;;45.75;36.50;;;;;;;;5042803;27;111978;-72
2021/11/01 06:32:20;;;;;;;;;46.25;41.50;;;;;;;;5039606;27;112472;-72
2021/11/01 06:40:24;;;;;;;;;45.50;39.00;;;;;;;;5037598;27;112043;-72
2021/11/01 06:56:04;;;;;;;;;48.50;41.75;;;;;;;;5040044;27;112292;-70
2021/11/01 07:14:48;;;;;;;;;67.33;54.00;;;;;;;;5042205;27;112250;-70
2021/11/01 09:20:23;;;;;;;;;46.75;39.00;;;;;;;;5061669;27;112109;-73
2021/11/01 09:23:07;;;;;;;;;53.67;44.67;;;;;;;;5060957;27;112450;-73
2021/11/01 09:28:13;;;;;;;;;47.00;39.50;;;;;;;;5061714;27;112095;-75
2021/11/01 09:38:57;;;;;;;;;42.50;37.25;;;;;;;;5061492;27;112131;-74
2021/11/01 09:41:24;;;;;;;;;47.00;38.25;;;;;;;;5040297;27;113575;-76
2021/11/01 09:43:52;;;;;;;;;49.75;40.50;;;;;;;;5039434;27;113133;-76
2021/11/01 09:46:19;;;;;;;;;53.67;43.00;;;;;;;;5022287;27;112014;-76
2021/11/01 09:48:45;;;;;;;;;49.75;40.75;;;;;;;;5040923;27;113002;-76
2021/11/01 09:51:11;;;;;;;;;48.50;39.50;;;;;;;;5007093;27;113989;-74
2021/11/01 09:53:46;;;;;;;;;50.00;38.25;;;;;;;;5058266;27;111817;-76
2021/11/01 09:59:12;;;;;;;;;54.25;44.00;;;;;;;;5039520;27;112924;-76
2021/11/01 10:01:45;;;;;;;;;39.50;38.25;;;;;;;;5061076;27;113207;-72
2021/11/01 10:04:15;;;;;;;;;43.75;39.00;;;;;;;;5059772;27;112403;-72
2021/11/01 10:06:40;;;;;;;;;37.50;32.50;;;;;;;;5060872;27;112096;-73
2021/11/01 10:09:12;;;;;;;;;37.75;33.50;;;;;;;;5060590;27;112189;-81
2021/11/01 10:11:39;;;;;;;;;38.25;35.75;;;;;;;;5048037;27;113756;-74
2021/11/01 10:14:08;;;;;;;;;37.25;32.75;;;;;;;;5040303;27;111917;-76
2021/11/01 10:19:32;;;;;;;;;43.50;37.00;;;;;;;;5039368;27;112292;-72
2021/11/01 10:22:00;;;;;;;;;36.75;31.75;;;;;;;;5043799;27;113578;-76
2021/11/01 10:24:27;;;;;;;;;42.50;39.00;;;;;;;;5038873;27;113837;-77
2021/11/01 10:26:52;;;;;;;;;41.00;35.50;;;;;;;;5038437;27;112236;-73
2021/11/01 10:29:18;;;;;;;;;41.00;31.75;;;;;;;;5038751;27;112123;-73
2021/11/01 10:31:45;;;;;;;;;42.75;39.00;;;;;;;;5038987;27;112133;-73
2021/11/01 10:34:12;;;;;;;;;49.00;40.00;;;;;;;;5039982;27;111839;-72
2021/11/01 10:36:38;;;;;;;;;42.75;37.25;;;;;;;;5041170;27;112087;-71
2021/11/01 10:39:05;;;;;;;;;48.75;39.25;;;;;;;;5021398;27;115720;-75
2021/11/01 11:12:37;;;;;;;;;43.75;38.00;;;;;;;;5064165;27;111998;-80
2021/11/01 11:15:10;;;;;;;;;43.00;38.50;;;;;;;;5044137;27;116230;-78
2021/11/01 11:47:39;;;;;;;;;52.25;40.25;;;;;;;;5063065;27;112094;-73
2021/11/01 11:49:45;;;;;;;;;52.25;43.25;;;;;;;;5049274;27;111831;-73
2021/11/01 11:52:12;;;;;;;;;49.75;41.75;;;;;;;;5060761;27;113729;-74
2021/11/01 11:54:42;;;;;;;;;48.00;38.00;;;;;;;;5066253;27;112096;-72
2021/11/01 11:57:21;;;;;;;;;53.00;42.00;;;;;;;;5062220;27;112749;-71
2021/11/01 11:59:47;;;;;;;;;54.00;43.75;;;;;;;;5061203;27;111763;-76
2021/11/01 12:02:13;;;;;;;;;52.50;40.25;;;;;;;;5063885;27;112148;-73
2021/11/01 12:04:47;;;;;;;;;48.25;39.75;;;;;;;;5062062;27;112577;-72
2021/11/01 12:07:15;;;;;;;;;48.25;40.75;;;;;;;;5062443;27;111915;-73
2021/11/01 12:09:51;;;;;;;;;42.25;38.50;;;;;;;;5062762;27;112985;-74
2021/11/01 12:12:38;;;;;;;;;50.50;41.00;;;;;;;;5061949;27;112546;-73
2021/11/01 12:17:49;;;;;;;;;56.50;45.00;;;;;;;;5065830;27;112055;-73
2021/11/01 12:20:15;;;;;;;;;43.25;38.50;;;;;;;;5062526;27;112064;-73
2021/11/01 12:22:47;;;;;;;;;45.50;37.75;;;;;;;;5063376;27;111818;-72
2021/11/01 12:25:14;;;;;;;;;46.50;38.75;;;;;;;;5062091;27;112395;-76
2021/11/01 12:27:43;;;;;;;;;42.25;38.00;;;;;;;;5062454;27;112956;-75
2021/11/01 12:30:16;;;;;;;;;36.25;32.25;;;;;;;;5062810;27;112069;-73
2021/11/01 12:32:42;;;;;;;;;31.25;28.00;;;;;;;;5061904;27;112455;-71
2021/11/01 12:35:22;;;;;;;;;24.75;19.75;;;;;;;;5062231;27;112216;-70
2021/11/01 12:38:06;;;;;;;;;27.00;26.25;;;;;;;;5061172;27;114583;-69
2021/11/01 12:57:23;;;;;;;;;23.50;22.50;;;;;;;;5062221;27;112026;-71
2021/11/01 12:59:50;;;;;;;;;19.00;16.25;;;;;;;;5062400;27;113493;-70
2021/11/01 13:02:35;;;;;;;;;19.50;18.00;;;;;;;;5060777;27;112541;-72
2021/11/01 13:05:04;;;;;;;;;19.75;16.75;;;;;;;;5063123;27;112131;-71
2021/11/01 13:20:30;;;;;;;;;28.50;23.75;;;;;;;;5061621;27;112082;-76
2021/11/01 13:22:59;;;;;;;;;23.00;20.50;;;;;;;;5060587;27;114070;-76
2021/11/01 13:38:27;;;;;;;;;22.75;18.00;;;;;;;;5061842;27;111957;-76
2021/11/01 13:40:52;;;;;;;;;26.25;20.50;;;;;;;;5061436;27;112136;-76
2021/11/01 13:43:24;;;;;;;;;21.00;19.00;;;;;;;;5060571;27;112606;-77
2021/11/01 13:45:50;;;;;;;;;20.75;19.00;;;;;;;;5060686;27;112182;-76
2021/11/01 13:48:24;;;;;;;;;22.00;16.00;;;;;;;;5037360;27;113721;-76
2021/11/01 13:50:49;;;;;;;;;23.75;20.25;;;;;;;;5038594;27;113005;-77
2021/11/01 13:53:17;;;;;;;;;20.25;18.50;;;;;;;;5059528;27;112152;-78
2021/11/01 13:55:48;;;;;;;;;21.25;20.00;;;;;;;;5059394;27;113651;-81
2021/11/01 13:58:34;;;;;;;;;19.25;15.50;;;;;;;;5060147;27;112261;-87
2021/11/01 14:01:34;;;;;;;;;20.75;17.00;;;;;;;;5058906;27;113167;-80
2021/11/01 14:33:03;;;;;;;;;14.25;13.25;;;;;;;;5051907;27;113022;-81
2021/11/01 15:03:36;;;;;;;;;7.25;7.25;;;;;;;;5064163;27;111801;-82
2021/11/01 15:15:42;;;;;;;;;14.00;9.50;;;;;;;;5063292;27;112473;-83
2021/11/01 15:31:16;;;;;;;;;13.00;13.00;;;;;;;;5062875;27;111923;-81
2021/11/01 16:15:21;;;;;;;;;6.50;6.00;;;;;;;;5041897;27;112170;-82
2021/11/01 16:19:06;;;;;;;;;6.00;5.00;;;;;;;;5061082;27;112274;-86
2021/11/01 16:21:32;;;;;;;;;7.50;5.00;;;;;;;;5061741;27;111864;-76
2021/11/01 16:23:58;;;;;;;;;7.50;6.00;;;;;;;;5062273;27;112280;-76
2021/11/01 16:28:52;;;;;;;;;8.00;8.00;;;;;;;;5062787;27;111706;-75
2021/11/01 16:31:26;;;;;;;;;9.75;6.75;;;;;;;;5064799;27;113090;-76
2021/11/01 16:33:57;;;;;;;;;9.25;7.00;;;;;;;;5062516;27;111713;-74
2021/11/01 16:36:57;;;;;;;;;10.25;7.00;;;;;;;;5059442;27;113531;-75
2021/11/01 16:39:10;;;;;;;;;7.00;6.00;;;;;;;;5059424;27;112606;-76
2021/11/01 16:41:35;;;;;;;;;9.00;7.00;;;;;;;;5061214;27;111779;-76
2021/11/01 16:44:11;;;;;;;;;7.00;6.75;;;;;;;;5039237;27;115207;-78
2021/11/01 16:46:36;;;;;;;;;11.00;9.00;;;;;;;;5058461;27;112804;-78
2021/11/01 16:49:02;;;;;;;;;6.25;5.75;;;;;;;;5061650;27;112197;-86
2021/11/01 16:51:28;;;;;;;;;9.50;7.50;;;;;;;;5061732;27;112063;-83
2021/11/01 16:53:56;;;;;;;;;6.00;6.00;;;;;;;;5064346;27;112494;-85
2021/11/01 16:59:26;;;;;;;;;6.75;5.75;;;;;;;;5041184;27;112543;-84
2021/11/01 17:01:56;;;;;;;;;7.00;7.00;;;;;;;;5056409;27;112602;-84
2021/11/01 17:04:22;;;;;;;;;10.25;7.00;;;;;;;;5049988;27;112721;-85
2021/11/01 17:07:04;;;;;;;;;9.75;9.00;;;;;;;;5061761;27;114047;-87
2021/11/01 17:34:39;;;;;;;;;7.00;6.00;;;;;;;;5060302;27;112223;-84
2021/11/01 17:37:04;;;;;;;;;6.00;5.00;;;;;;;;5057064;27;113304;-84
2021/11/01 18:41:07;;;;;;;;;4.00;3.50;;;;;;;;5046855;27;112028;-72
2021/11/01 18:43:12;;;;;;;;;5.00;3.50;;;;;;;;5019464;27;112681;-72
2021/11/01 18:51:10;;;;;;;;;2.25;2.25;;;;;;;;5056082;27;112512;-73
2021/11/01 18:53:41;;;;;;;;;6.25;3.25;;;;;;;;5043826;27;112525;-73
2021/11/01 18:56:08;;;;;;;;;4.50;3.00;;;;;;;;5058024;27;112472;-73
2021/11/01 18:58:34;;;;;;;;;5.50;3.00;;;;;;;;5058216;27;112119;-73
2021/11/01 19:01:01;;;;;;;;;6.75;5.75;;;;;;;;5057531;27;112379;-72
2021/11/01 19:03:28;;;;;;;;;6.25;6.25;;;;;;;;5055193;27;113155;-73
2021/11/01 19:06:00;;;;;;;;;1.50;1.25;;;;;;;;5055871;27;112076;-74
2021/11/01 20:06:00;;;;;;;;;1.50;1.00;;;;;;;;5064442;27;111977;-73
2021/11/01 21:25:40;;;;;;;;;0.00;0.00;;;;;;;;5052655;27;112189;-76
2021/11/01 21:28:06;;;;;;;;;0.25;0.00;;;;;;;;5058300;27;112953;-76
2021/11/01 21:30:31;;;;;;;;;1.00;0.00;;;;;;;;5059334;27;112283;-76
2021/11/01 21:32:56;;;;;;;;;0.00;0.00;;;;;;;;5056460;27;112284;-76
2021/11/01 21:35:27;;;;;;;;;0.00;0.00;;;;;;;;5059672;27;113438;-76
2021/11/01 21:37:53;;;;;;;;;0.00;0.00;;;;;;;;5052168;27;112689;-77
2021/11/01 21:40:19;;;;;;;;;0.25;0.00;;;;;;;;5065239;27;111853;-76
2021/11/01 21:42:45;;;;;;;;;0.00;0.00;;;;;;;;5060558;27;112859;-74
2021/11/01 21:45:10;;;;;;;;;0.50;0.00;;;;;;;;5061447;27;112066;-77
2021/11/01 21:47:36;;;;;;;;;0.00;0.00;;;;;;;;5057129;27;113406;-76
2021/11/01 21:50:01;;;;;;;;;1.25;0.00;;;;;;;;5059449;27;113991;-76
2021/11/01 21:52:27;;;;;;;;;0.00;0.00;;;;;;;;5060203;27;111857;-77
2021/11/01 21:54:57;;;;;;;;;0.00;0.00;;;;;;;;5057274;27;112831;-77
2021/11/01 21:57:27;;;;;;;;;0.00;0.00;;;;;;;;5055844;27;115265;-77
2021/11/01 22:21:22;;;;;;;;;0.00;0.00;;;;;;;;5060106;27;112513;-74
2021/11/01 22:24:03;;;;;;;;;1.00;0.00;;;;;;;;5048542;27;112826;-75
2021/11/01 22:45:22;;;;;;;;;0.00;0.00;;;;;;;;5028201;27;111904;-76
2021/11/01 22:55:50;;;;;;;;;0.50;0.00;;;;;;;;5043115;27;112508;-75
2021/11/01 22:58:16;;;;;;;;;0.00;0.00;;;;;;;;5054250;27;112408;-74
2021/11/01 23:00:55;;;;;;;;;0.00;0.00;;;;;;;;5045895;27;112676;-74
2021/11/01 23:03:38;;;;;;;;;0.00;0.00;;;;;;;;5045939;27;113213;-75
2021/11/01 23:06:15;;;;;;;;;0.00;0.00;;;;;;;;5039930;27;112547;-74
2021/11/01 23:33:21;;;;;;;;;0.00;0.00;;;;;;;;5043849;27;111938;-76
2021/11/01 23:35:46;;;;;;;;;0.00;0.00;;;;;;;;5045781;27;113158;-74
2021/11/01 23:38:12;;;;;;;;;0.00;0.00;;;;;;;;5043581;27;113348;-75
2021/11/01 23:40:37;;;;;;;;;0.00;0.00;;;;;;;;5044026;27;112209;-75
2021/11/01 23:43:02;;;;;;;;;0.00;0.00;;;;;;;;5024512;27;113598;-75
2021/11/01 23:45:29;;;;;;;;;0.00;0.00;;;;;;;;5043962;27;112184;-76
2021/11/01 23:47:54;;;;;;;;;0.00;0.00;;;;;;;;5043619;27;111994;-74
2021/11/01 23:50:19;;;;;;;;;0.00;0.00;;;;;;;;5041658;27;112353;-75
2021/11/01 23:52:56;;;;;;;;;0.00;0.00;;;;;;;;5043498;27;111640;-75
2021/11/01 23:55:22;;;;;;;;;1.00;0.00;;;;;;;;5042969;27;113084;-76
2021/11/01 23:57:47;;;;;;;;;0.00;0.00;;;;;;;;5046119;27;112452;-76
